createdAt,value
2023-12-11T00:00:25.293Z,0.22
2023-12-11T00:01:22.120Z,0.19
2023-12-11T00:02:18.916Z,0.29
2023-12-11T00:03:15.590Z,0.24
2023-12-11T00:04:15.168Z,0.15
2023-12-11T00:05:11.944Z,0.06
2023-12-11T00:06:08.811Z,0.05
2023-12-11T00:07:05.494Z,0.03
2023-12-11T00:08:02.220Z,0.36
2023-12-11T00:08:58.903Z,0.35
2023-12-11T00:09:55.769Z,0.08
2023-12-11T00:10:52.591Z,0.07
2023-12-11T00:11:49.258Z,-0.11
2023-12-11T00:12:45.920Z,-0.08
2023-12-11T00:13:42.726Z,0.13
2023-12-11T00:14:39.365Z,-0.01
2023-12-11T00:15:36.021Z,0.05
2023-12-11T00:16:32.726Z,0.09
2023-12-11T00:17:30.249Z,0.34
2023-12-11T00:18:27.229Z,0.21
2023-12-11T00:19:24.148Z,0.25
2023-12-11T00:20:20.911Z,0.34
2023-12-11T00:21:17.706Z,0.24
2023-12-11T00:22:14.384Z,0.21
2023-12-11T00:23:11.086Z,0.29
2023-12-11T00:24:07.802Z,0.14
2023-12-11T00:25:05.937Z,0.07
2023-12-11T00:26:02.588Z,0.08
2023-12-11T00:26:59.250Z,-0.09
2023-12-11T00:27:56.154Z,-0.37
2023-12-11T00:28:53.330Z,-0.32
2023-12-11T00:29:50.705Z,-0.40
2023-12-11T00:30:47.422Z,-0.38
2023-12-11T00:31:44.191Z,-0.32
2023-12-11T00:32:40.922Z,-0.27
2023-12-11T00:33:37.964Z,-0.29
2023-12-11T00:34:34.855Z,-0.45
2023-12-11T00:35:31.568Z,-0.42
2023-12-11T00:36:28.422Z,-0.14
2023-12-11T00:37:25.197Z,0.07
2023-12-11T00:38:21.889Z,-0.20
2023-12-11T00:39:18.591Z,-0.34
2023-12-11T00:40:15.413Z,-0.41
2023-12-11T00:41:12.400Z,-0.34
2023-12-11T00:42:09.073Z,-0.16
2023-12-11T00:43:05.873Z,-0.10
2023-12-11T00:44:02.535Z,-0.32
2023-12-11T00:44:59.302Z,-0.47
2023-12-11T00:45:55.980Z,-0.50
2023-12-11T00:46:52.647Z,-0.73
2023-12-11T00:47:49.354Z,-0.68
2023-12-11T00:48:46.367Z,-0.83
2023-12-11T00:49:43.872Z,-0.76
2023-12-11T00:50:40.592Z,-0.75
2023-12-11T00:51:37.260Z,-0.78
2023-12-11T00:52:34.010Z,-0.77
2023-12-11T00:53:30.680Z,-0.73
2023-12-11T00:54:27.525Z,-0.70
2023-12-11T00:55:24.218Z,-0.63
2023-12-11T00:56:20.949Z,-0.68
2023-12-11T00:57:17.673Z,-0.65
2023-12-11T00:58:14.439Z,-0.59
2023-12-11T00:59:11.134Z,-0.64
2023-12-11T01:00:08.539Z,-0.48
2023-12-11T01:01:06.325Z,-0.46
2023-12-11T01:02:03.136Z,-0.40
2023-12-11T01:02:59.896Z,-0.47
2023-12-11T01:03:56.685Z,-0.43
2023-12-11T01:04:53.433Z,-0.66
2023-12-11T01:05:50.164Z,-0.61
2023-12-11T01:06:46.859Z,-0.38
2023-12-11T01:07:43.554Z,-0.31
2023-12-11T01:08:41.008Z,-0.36
2023-12-11T01:09:38.273Z,-0.25
2023-12-11T01:10:35.033Z,-0.21
2023-12-11T01:11:31.713Z,-0.13
2023-12-11T01:12:28.495Z,-0.04
2023-12-11T01:13:26.068Z,0.05
2023-12-11T01:14:22.771Z,-0.03
2023-12-11T01:15:19.532Z,0.01
2023-12-11T01:16:16.190Z,0.03
2023-12-11T01:17:36.961Z,0.06
2023-12-11T01:18:30.005Z,0.25
2023-12-11T01:19:27.025Z,0.18
2023-12-11T01:20:23.757Z,0.20
2023-12-11T01:21:20.457Z,0.20
2023-12-11T01:22:17.218Z,0.26
2023-12-11T01:23:13.967Z,0.35
2023-12-11T01:24:10.698Z,0.47
2023-12-11T01:25:09.820Z,0.52
2023-12-11T01:26:06.689Z,0.57
2023-12-11T01:27:04.568Z,0.71
2023-12-11T01:28:01.261Z,0.59
2023-12-11T01:28:58.039Z,0.38
2023-12-11T01:29:54.733Z,0.52
2023-12-11T01:30:51.428Z,0.52
2023-12-11T01:31:48.162Z,0.43
2023-12-11T01:32:44.861Z,0.42
2023-12-11T01:33:41.574Z,0.60
2023-12-11T01:34:38.476Z,0.72
2023-12-11T01:35:35.415Z,0.57
2023-12-11T01:36:32.131Z,0.50
2023-12-11T01:37:28.977Z,0.63
2023-12-11T01:38:25.818Z,0.62
2023-12-11T01:39:22.570Z,0.50
2023-12-11T01:40:19.339Z,0.49
2023-12-11T01:41:16.077Z,0.56
2023-12-11T01:42:12.756Z,0.44
2023-12-11T01:43:17.664Z,0.59
2023-12-11T01:44:15.816Z,0.54
2023-12-11T01:45:12.738Z,0.49
2023-12-11T01:46:14.896Z,0.44
2023-12-11T01:47:11.900Z,0.56
2023-12-11T01:48:12.731Z,0.65
2023-12-11T01:49:10.136Z,0.74
2023-12-11T01:50:09.535Z,0.66
2023-12-11T01:51:08.286Z,0.71
2023-12-11T01:52:07.019Z,0.76
2023-12-11T01:53:04.761Z,0.88
2023-12-11T01:54:02.058Z,1.04
2023-12-11T01:54:58.867Z,0.85
2023-12-11T01:55:55.828Z,0.97
2023-12-11T01:56:52.796Z,0.96
2023-12-11T01:57:49.521Z,0.83
2023-12-11T01:58:47.007Z,0.86
2023-12-11T01:59:46.771Z,0.90
2023-12-11T02:00:45.665Z,0.78
2023-12-11T02:01:45.242Z,0.85
2023-12-11T02:02:42.608Z,0.79
2023-12-11T02:03:40.057Z,0.94
2023-12-11T02:04:36.937Z,0.91
2023-12-11T02:05:33.702Z,0.83
2023-12-11T02:06:30.435Z,0.85
2023-12-11T02:07:27.394Z,0.92
2023-12-11T02:08:24.748Z,0.87
2023-12-11T02:09:21.438Z,0.85
2023-12-11T02:10:18.199Z,0.97
2023-12-11T02:11:15.284Z,0.84
2023-12-11T02:12:12.247Z,0.79
2023-12-11T02:13:09.432Z,0.80
2023-12-11T02:14:06.103Z,0.86
2023-12-11T02:15:02.766Z,0.86
2023-12-11T02:15:59.559Z,0.92
2023-12-11T02:16:56.208Z,0.95
2023-12-11T02:17:52.960Z,0.87
2023-12-11T02:18:49.962Z,1.02
2023-12-11T02:19:46.808Z,0.96
2023-12-11T02:20:44.811Z,1.26
2023-12-11T02:21:41.476Z,1.36
2023-12-11T02:22:38.565Z,1.30
2023-12-11T02:23:41.268Z,1.30
2023-12-11T02:24:47.156Z,1.20
2023-12-11T02:25:47.098Z,1.10
2023-12-11T02:26:44.395Z,1.28
2023-12-11T02:27:41.094Z,1.29
2023-12-11T02:28:37.838Z,1.26
2023-12-11T02:29:34.480Z,1.32
2023-12-11T02:30:36.795Z,1.23
2023-12-11T02:31:33.469Z,1.33
2023-12-11T02:32:30.204Z,1.35
2023-12-11T02:33:27.132Z,1.25
2023-12-11T02:34:23.937Z,1.29
2023-12-11T02:35:20.721Z,1.24
2023-12-11T02:36:17.541Z,1.16
2023-12-11T02:37:14.977Z,1.21
2023-12-11T02:38:11.736Z,1.14
2023-12-11T02:39:08.716Z,1.17
2023-12-11T02:40:06.316Z,1.13
2023-12-11T02:41:03.513Z,1.13
2023-12-11T02:42:00.250Z,1.12
2023-12-11T02:42:57.036Z,1.15
2023-12-11T02:43:53.742Z,1.14
2023-12-11T02:44:50.424Z,1.17
2023-12-11T02:45:47.148Z,1.19
2023-12-11T02:46:43.857Z,1.16
2023-12-11T02:47:40.597Z,1.09
2023-12-11T02:48:37.489Z,1.13
2023-12-11T02:49:34.370Z,1.20
2023-12-11T02:50:32.071Z,1.20
2023-12-11T02:51:28.763Z,1.24
2023-12-11T02:52:25.458Z,1.19
2023-12-11T02:53:22.184Z,1.18
2023-12-11T02:54:18.899Z,1.13
2023-12-11T02:55:15.769Z,1.16
2023-12-11T02:56:12.501Z,1.32
2023-12-11T02:57:09.136Z,1.36
2023-12-11T02:58:05.913Z,1.19
2023-12-11T02:59:02.577Z,1.38
2023-12-11T02:59:59.215Z,1.30
2023-12-11T03:00:56.058Z,1.29
2023-12-11T03:01:52.792Z,1.26
2023-12-11T03:02:49.546Z,1.28
2023-12-11T03:03:46.286Z,1.25
2023-12-11T03:04:43.151Z,1.21
2023-12-11T03:05:39.986Z,1.41
2023-12-11T03:06:36.832Z,1.33
2023-12-11T03:07:33.540Z,1.24
2023-12-11T03:08:30.288Z,1.28
2023-12-11T03:09:26.975Z,1.21
2023-12-11T03:10:23.963Z,1.22
2023-12-11T03:11:20.635Z,1.21
2023-12-11T03:12:17.405Z,1.09
2023-12-11T03:13:14.093Z,1.12
2023-12-11T03:14:10.762Z,1.11
2023-12-11T03:15:08.654Z,1.30
2023-12-11T03:16:05.625Z,1.11
2023-12-11T03:17:02.316Z,1.31
2023-12-11T03:17:59.843Z,1.24
2023-12-11T03:18:56.703Z,1.16
2023-12-11T03:19:54.108Z,1.39
2023-12-11T03:20:50.820Z,1.37
2023-12-11T03:21:47.589Z,1.29
2023-12-11T03:22:44.369Z,1.23
2023-12-11T03:23:41.194Z,1.11
2023-12-11T03:24:37.953Z,1.30
2023-12-11T03:25:34.632Z,1.25
2023-12-11T03:26:31.529Z,1.13
2023-12-11T03:27:28.340Z,1.11
2023-12-11T03:28:26.389Z,1.16
2023-12-11T03:29:23.104Z,0.97
2023-12-11T03:30:19.785Z,1.00
2023-12-11T03:31:16.442Z,1.02
2023-12-11T03:32:13.230Z,1.07
2023-12-11T03:33:09.911Z,1.00
2023-12-11T03:34:06.733Z,0.91
2023-12-11T03:35:04.547Z,1.14
2023-12-11T03:36:01.244Z,1.32
2023-12-11T03:36:58.023Z,1.38
2023-12-11T03:37:54.702Z,1.29
2023-12-11T03:38:51.386Z,1.14
2023-12-11T03:39:48.073Z,1.08
2023-12-11T03:40:44.794Z,1.12
2023-12-11T03:41:41.467Z,1.09
2023-12-11T03:42:38.201Z,1.09
2023-12-11T03:43:34.919Z,1.14
2023-12-11T03:44:31.578Z,1.15
2023-12-11T03:45:28.366Z,1.16
2023-12-11T03:46:25.130Z,0.91
2023-12-11T03:47:23.162Z,1.01
2023-12-11T03:48:19.921Z,0.98
2023-12-11T03:49:18.093Z,0.98
2023-12-11T03:50:15.073Z,0.99
2023-12-11T03:51:11.737Z,1.06
2023-12-11T03:52:08.549Z,1.06
2023-12-11T03:53:05.247Z,1.03
2023-12-11T03:54:02.068Z,1.14
2023-12-11T03:54:59.197Z,1.12
2023-12-11T03:55:55.976Z,1.15
2023-12-11T03:56:52.627Z,1.10
2023-12-11T03:57:49.275Z,1.15
2023-12-11T03:58:45.963Z,1.15
2023-12-11T03:59:42.704Z,1.20
2023-12-11T04:00:39.478Z,1.19
2023-12-11T04:01:36.417Z,1.40
2023-12-11T04:02:33.251Z,1.26
2023-12-11T04:03:30.060Z,1.20
2023-12-11T04:04:26.879Z,1.20
2023-12-11T04:05:23.649Z,1.16
2023-12-11T04:06:20.379Z,1.22
2023-12-11T04:07:17.188Z,1.26
2023-12-11T04:08:13.912Z,1.20
2023-12-11T04:09:10.614Z,1.16
2023-12-11T04:10:07.963Z,1.09
2023-12-11T04:11:04.870Z,1.34
2023-12-11T04:12:01.544Z,1.22
2023-12-11T04:13:00.802Z,1.15
2023-12-11T04:13:57.531Z,1.21
2023-12-11T04:14:54.159Z,1.24
2023-12-11T04:15:50.868Z,1.12
2023-12-11T04:16:47.595Z,1.08
2023-12-11T04:17:44.476Z,1.07
2023-12-11T04:18:42.373Z,1.06
2023-12-11T04:19:39.199Z,1.01
2023-12-11T04:20:36.002Z,0.99
2023-12-11T04:21:32.881Z,1.15
2023-12-11T04:22:29.602Z,1.11
2023-12-11T04:23:26.300Z,1.07
2023-12-11T04:24:23.007Z,1.17
2023-12-11T04:25:19.746Z,1.32
2023-12-11T04:26:16.408Z,1.29
2023-12-11T04:27:13.101Z,1.31
2023-12-11T04:28:09.852Z,1.21
2023-12-11T04:29:06.747Z,1.15
2023-12-11T04:30:03.663Z,1.12
2023-12-11T04:31:00.393Z,1.19
2023-12-11T04:31:57.069Z,1.16
2023-12-11T04:32:53.868Z,1.20
2023-12-11T04:33:51.391Z,1.34
2023-12-11T04:34:48.204Z,1.22
2023-12-11T04:35:49.046Z,1.22
2023-12-11T04:36:47.939Z,1.14
2023-12-11T04:37:44.713Z,1.17
2023-12-11T04:38:41.423Z,1.21
2023-12-11T04:39:38.231Z,1.34
2023-12-11T04:40:35.031Z,1.08
2023-12-11T04:41:31.770Z,1.11
2023-12-11T04:42:28.399Z,1.21
2023-12-11T04:43:26.493Z,1.18
2023-12-11T04:44:24.352Z,1.14
2023-12-11T04:45:21.019Z,1.20
2023-12-11T04:46:17.788Z,1.37
2023-12-11T04:47:14.443Z,1.43
2023-12-11T04:48:11.163Z,1.37
2023-12-11T04:49:08.006Z,1.33
2023-12-11T04:50:05.087Z,1.17
2023-12-11T04:51:02.094Z,1.29
2023-12-11T04:51:59.085Z,1.28
2023-12-11T04:52:55.903Z,1.22
2023-12-11T04:53:52.612Z,1.28
2023-12-11T04:54:49.253Z,1.39
2023-12-11T04:55:46.141Z,1.31
2023-12-11T04:56:42.853Z,1.24
2023-12-11T04:57:39.612Z,1.35
2023-12-11T04:58:36.322Z,1.39
2023-12-11T04:59:33.019Z,1.33
2023-12-11T05:00:29.667Z,1.30
2023-12-11T05:01:28.053Z,1.34
2023-12-11T05:02:24.915Z,1.33
2023-12-11T05:03:21.835Z,1.41
2023-12-11T05:04:18.559Z,1.41
2023-12-11T05:05:17.660Z,1.20
2023-12-11T05:06:14.369Z,1.24
2023-12-11T05:07:11.213Z,1.02
2023-12-11T05:08:07.885Z,1.12
2023-12-11T05:09:04.562Z,1.20
2023-12-11T05:10:01.253Z,1.16
2023-12-11T05:10:58.328Z,1.07
2023-12-11T05:11:54.970Z,1.11
2023-12-11T05:12:51.661Z,1.15
2023-12-11T05:13:48.342Z,1.22
2023-12-11T05:14:45.035Z,1.30
2023-12-11T05:15:41.819Z,1.27
2023-12-11T05:16:38.649Z,1.29
2023-12-11T05:17:35.739Z,1.34
2023-12-11T05:18:32.595Z,1.28
2023-12-11T05:19:29.374Z,1.26
2023-12-11T05:20:26.095Z,1.33
2023-12-11T05:21:23.308Z,1.29
2023-12-11T05:22:20.136Z,1.31
2023-12-11T05:23:16.821Z,1.28
2023-12-11T05:24:13.551Z,1.21
2023-12-11T05:25:10.367Z,1.39
2023-12-11T05:26:07.056Z,1.32
2023-12-11T05:27:03.832Z,1.15
2023-12-11T05:28:00.602Z,1.31
2023-12-11T05:28:57.656Z,1.36
2023-12-11T05:29:54.361Z,1.42
2023-12-11T05:30:51.105Z,1.34
2023-12-11T05:31:47.773Z,1.17
2023-12-11T05:32:45.488Z,1.23
2023-12-11T05:33:42.575Z,1.09
2023-12-11T05:34:39.422Z,1.00
2023-12-11T05:35:36.286Z,1.04
2023-12-11T05:36:34.641Z,1.16
2023-12-11T05:37:31.566Z,1.14
2023-12-11T05:38:28.474Z,1.23
2023-12-11T05:39:25.159Z,0.90
2023-12-11T05:40:23.847Z,1.18
2023-12-11T05:41:20.948Z,1.23
2023-12-11T05:42:17.628Z,1.19
2023-12-11T05:43:14.513Z,1.09
2023-12-11T05:44:11.277Z,1.13
2023-12-11T05:45:09.637Z,1.35
2023-12-11T05:46:07.393Z,1.29
2023-12-11T05:47:04.191Z,1.03
2023-12-11T05:48:00.932Z,1.02
2023-12-11T05:48:57.756Z,1.09
2023-12-11T05:49:54.592Z,1.01
2023-12-11T05:50:51.368Z,1.26
2023-12-11T05:51:48.174Z,1.38
2023-12-11T05:52:45.743Z,1.51
2023-12-11T05:53:42.588Z,1.44
2023-12-11T05:54:39.304Z,1.38
2023-12-11T05:55:36.091Z,1.33
2023-12-11T05:56:32.826Z,1.38
2023-12-11T05:57:29.661Z,1.32
2023-12-11T05:58:26.503Z,1.43
2023-12-11T05:59:23.233Z,1.47
2023-12-11T06:00:20.335Z,1.51
2023-12-11T06:01:17.163Z,1.48
2023-12-11T06:02:13.961Z,1.41
2023-12-11T06:03:11.592Z,1.43
2023-12-11T06:04:08.514Z,1.43
2023-12-11T06:05:05.723Z,1.44
2023-12-11T06:06:02.521Z,1.34
2023-12-11T06:06:59.182Z,1.37
2023-12-11T06:07:55.888Z,1.53
2023-12-11T06:08:52.673Z,1.66
2023-12-11T06:09:49.701Z,1.50
2023-12-11T06:10:46.442Z,1.47
2023-12-11T06:11:43.102Z,1.44
2023-12-11T06:12:39.853Z,1.31
2023-12-11T06:13:36.636Z,1.53
2023-12-11T06:14:33.350Z,1.49
2023-12-11T06:15:30.054Z,1.54
2023-12-11T06:16:26.700Z,1.40
2023-12-11T06:17:23.405Z,1.45
2023-12-11T06:18:20.335Z,1.65
2023-12-11T06:19:17.157Z,1.53
2023-12-11T06:20:13.916Z,1.45
2023-12-11T06:21:20.805Z,1.48
2023-12-11T06:22:17.604Z,1.53
2023-12-11T06:23:14.336Z,1.43
2023-12-11T06:24:10.996Z,1.62
2023-12-11T06:25:08.408Z,1.52
2023-12-11T06:26:05.182Z,1.45
2023-12-11T06:27:01.865Z,1.59
2023-12-11T06:27:58.667Z,1.56
2023-12-11T06:28:55.554Z,1.54
2023-12-11T06:29:52.403Z,1.54
2023-12-11T06:30:49.182Z,1.58
2023-12-11T06:31:45.892Z,1.69
2023-12-11T06:32:42.675Z,1.67
2023-12-11T06:33:41.571Z,1.75
2023-12-11T06:34:39.277Z,1.64
2023-12-11T06:35:36.063Z,1.71
2023-12-11T06:36:32.996Z,1.66
2023-12-11T06:37:29.973Z,1.62
2023-12-11T06:38:26.813Z,1.62
2023-12-11T06:39:24.268Z,1.65
2023-12-11T06:40:21.064Z,1.64
2023-12-11T06:41:18.710Z,1.71
2023-12-11T06:42:15.578Z,1.89
2023-12-11T06:43:12.280Z,2.00
2023-12-11T06:44:10.860Z,1.84
2023-12-11T06:45:09.903Z,1.72
2023-12-11T06:46:07.057Z,1.80
2023-12-11T06:47:03.887Z,1.86
2023-12-11T06:48:00.590Z,2.02
2023-12-11T06:49:00.745Z,2.06
2023-12-11T06:49:57.705Z,1.85
2023-12-11T06:50:57.937Z,1.93
2023-12-11T06:51:56.745Z,2.02
2023-12-11T06:52:53.524Z,2.02
2023-12-11T06:53:50.566Z,2.16
2023-12-11T06:54:47.587Z,2.02
2023-12-11T06:55:44.226Z,2.06
2023-12-11T06:56:40.970Z,2.11
2023-12-11T06:57:37.712Z,2.03
2023-12-11T06:58:34.478Z,2.00
2023-12-11T06:59:31.376Z,2.02
2023-12-11T07:00:28.130Z,1.97
2023-12-11T07:01:32.470Z,2.02
2023-12-11T07:02:29.335Z,2.16
2023-12-11T07:03:26.104Z,2.23
2023-12-11T07:04:22.919Z,2.31
2023-12-11T07:05:19.949Z,2.29
2023-12-11T07:06:18.831Z,2.19
2023-12-11T07:07:16.029Z,2.00
2023-12-11T07:08:12.736Z,2.26
2023-12-11T07:09:11.314Z,2.15
2023-12-11T07:10:09.087Z,2.24
2023-12-11T07:11:05.928Z,2.22
2023-12-11T07:12:02.800Z,2.20
2023-12-11T07:12:59.551Z,2.14
2023-12-11T07:13:56.537Z,2.23
2023-12-11T07:14:53.516Z,2.09
2023-12-11T07:15:50.286Z,2.18
2023-12-11T07:16:47.083Z,2.12
2023-12-11T07:17:43.811Z,2.15
2023-12-11T07:18:40.814Z,2.36
2023-12-11T07:19:37.713Z,2.36
2023-12-11T07:20:34.956Z,2.28
2023-12-11T07:21:31.748Z,2.33
2023-12-11T07:22:28.518Z,2.37
2023-12-11T07:23:25.142Z,2.36
2023-12-11T07:24:21.849Z,2.33
2023-12-11T07:25:18.834Z,2.32
2023-12-11T07:26:15.917Z,2.49
2023-12-11T07:27:12.621Z,2.44
2023-12-11T07:28:09.358Z,2.42
2023-12-11T07:29:08.863Z,2.58
2023-12-11T07:30:06.268Z,2.49
2023-12-11T07:31:04.528Z,2.50
2023-12-11T07:32:01.197Z,2.42
2023-12-11T07:32:57.961Z,2.44
2023-12-11T07:33:57.046Z,2.38
2023-12-11T07:34:54.208Z,2.39
2023-12-11T07:35:50.985Z,2.39
2023-12-11T07:36:47.720Z,2.32
2023-12-11T07:37:44.425Z,2.44
2023-12-11T07:38:41.189Z,2.35
2023-12-11T07:39:37.889Z,2.41
2023-12-11T07:40:34.608Z,2.67
2023-12-11T07:41:31.291Z,2.73
2023-12-11T07:42:27.964Z,2.58
2023-12-11T07:43:25.086Z,2.46
2023-12-11T07:44:22.660Z,2.54
2023-12-11T07:45:19.483Z,2.65
2023-12-11T07:46:21.201Z,2.70
2023-12-11T07:47:17.943Z,2.42
2023-12-11T07:48:14.795Z,2.58
2023-12-11T07:49:15.057Z,2.71
2023-12-11T07:50:12.042Z,2.64
2023-12-11T07:51:18.052Z,2.59
2023-12-11T07:52:15.157Z,2.73
2023-12-11T07:53:11.848Z,2.79
2023-12-11T07:54:08.594Z,2.60
2023-12-11T07:55:06.779Z,2.69
2023-12-11T07:56:05.018Z,2.70
2023-12-11T07:57:01.667Z,2.70
2023-12-11T07:57:59.275Z,2.65
2023-12-11T07:58:56.004Z,2.58
2023-12-11T07:59:53.566Z,2.62
2023-12-11T08:00:50.308Z,2.64
2023-12-11T08:01:47.382Z,2.62
2023-12-11T08:02:44.098Z,2.74
2023-12-11T08:03:41.424Z,2.59
2023-12-11T08:04:41.478Z,2.67
2023-12-11T08:05:38.641Z,2.87
2023-12-11T08:06:40.921Z,2.80
2023-12-11T08:07:38.410Z,2.83
2023-12-11T08:08:41.336Z,2.81
2023-12-11T08:09:39.002Z,2.87
2023-12-11T08:10:36.266Z,2.93
2023-12-11T08:11:33.042Z,2.82
2023-12-11T08:12:30.145Z,3.03
2023-12-11T08:13:26.825Z,2.86
2023-12-11T08:14:23.495Z,2.88
2023-12-11T08:15:20.236Z,2.66
2023-12-11T08:16:17.754Z,2.76
2023-12-11T08:17:14.578Z,2.60
2023-12-11T08:18:11.365Z,2.96
2023-12-11T08:19:08.263Z,2.81
2023-12-11T08:20:09.746Z,2.82
2023-12-11T08:21:08.200Z,3.00
2023-12-11T08:22:05.525Z,3.00
2023-12-11T08:23:02.223Z,2.92
2023-12-11T08:23:58.883Z,2.93
2023-12-11T08:24:55.872Z,2.92
2023-12-11T08:25:52.643Z,2.95
2023-12-11T08:26:49.335Z,2.81
2023-12-11T08:27:46.145Z,2.97
2023-12-11T08:28:42.876Z,3.15
2023-12-11T08:29:39.530Z,2.89
2023-12-11T08:30:36.233Z,2.94
2023-12-11T08:31:33.003Z,2.98
2023-12-11T08:32:29.823Z,3.00
2023-12-11T08:33:26.643Z,2.99
2023-12-11T08:34:23.496Z,2.90
2023-12-11T08:35:20.203Z,2.96
2023-12-11T08:36:17.063Z,2.99
2023-12-11T08:37:13.833Z,3.12
2023-12-11T08:38:10.735Z,3.09
2023-12-11T08:39:07.797Z,3.11
2023-12-11T08:40:06.619Z,2.93
2023-12-11T08:41:03.813Z,2.96
2023-12-11T08:42:00.584Z,3.09
2023-12-11T08:42:57.403Z,3.17
2023-12-11T08:43:54.229Z,3.30
2023-12-11T08:44:50.865Z,3.27
2023-12-11T08:45:47.681Z,3.21
2023-12-11T08:46:44.712Z,3.21
2023-12-11T08:47:44.282Z,3.19
2023-12-11T08:48:41.623Z,3.32
2023-12-11T08:49:38.495Z,3.33
2023-12-11T08:50:35.977Z,3.44
2023-12-11T08:51:33.891Z,3.34
2023-12-11T08:52:30.872Z,3.30
2023-12-11T08:53:27.521Z,3.35
2023-12-11T08:54:24.193Z,3.65
2023-12-11T08:55:21.031Z,3.50
2023-12-11T08:56:20.756Z,3.47
2023-12-11T08:57:17.518Z,3.57
2023-12-11T08:58:14.332Z,3.48
2023-12-11T08:59:11.048Z,3.46
2023-12-11T09:00:09.009Z,3.77
2023-12-11T09:01:06.545Z,3.73
2023-12-11T09:02:03.502Z,3.61
2023-12-11T09:03:00.336Z,3.57
2023-12-11T09:03:57.160Z,3.63
2023-12-11T09:04:54.381Z,3.72
2023-12-11T09:05:52.034Z,3.66
2023-12-11T09:06:49.477Z,3.81
2023-12-11T09:07:46.351Z,3.82
2023-12-11T09:08:43.595Z,3.80
2023-12-11T09:09:40.377Z,3.65
2023-12-11T09:10:37.326Z,3.67
2023-12-11T09:11:33.990Z,3.90
2023-12-11T09:12:33.804Z,3.94
2023-12-11T09:13:30.942Z,4.05
2023-12-11T09:14:27.580Z,3.66
2023-12-11T09:15:24.251Z,3.51
2023-12-11T09:16:21.024Z,3.96
2023-12-11T09:17:17.773Z,3.85
2023-12-11T09:18:14.612Z,3.70
2023-12-11T09:19:11.384Z,3.80
2023-12-11T09:20:11.304Z,3.97
2023-12-11T09:21:08.238Z,4.01
2023-12-11T09:22:05.200Z,4.14
2023-12-11T09:23:02.108Z,4.10
2023-12-11T09:23:58.838Z,4.17
2023-12-11T09:24:55.652Z,4.26
2023-12-11T09:25:52.355Z,4.56
2023-12-11T09:26:48.982Z,4.32
2023-12-11T09:27:47.465Z,4.63
2023-12-11T09:28:51.706Z,4.26
2023-12-11T09:29:51.955Z,4.40
2023-12-11T09:30:48.751Z,4.53
2023-12-11T09:31:45.783Z,4.46
2023-12-11T09:32:43.097Z,4.60
2023-12-11T09:33:41.783Z,4.93
2023-12-11T09:34:38.993Z,5.13
2023-12-11T09:35:36.139Z,5.54
2023-12-11T09:36:32.885Z,5.22
2023-12-11T09:37:29.894Z,5.52
2023-12-11T09:38:26.714Z,5.78
2023-12-11T09:39:23.736Z,6.04
2023-12-11T09:40:20.860Z,6.19
2023-12-11T09:41:17.649Z,5.85
2023-12-11T09:42:18.501Z,5.75
2023-12-11T09:43:18.074Z,5.74
2023-12-11T09:44:14.723Z,5.81
2023-12-11T09:45:13.155Z,5.91
2023-12-11T09:46:17.373Z,6.11
2023-12-11T09:47:27.538Z,6.14
2023-12-11T09:48:24.472Z,6.39
2023-12-11T09:49:22.133Z,6.28
2023-12-11T09:50:19.912Z,5.87
2023-12-11T09:51:17.904Z,6.11
2023-12-11T09:52:14.879Z,6.14
2023-12-11T09:53:11.767Z,6.33
2023-12-11T09:54:09.264Z,6.17
2023-12-11T09:55:06.488Z,6.22
2023-12-11T09:56:04.186Z,6.52
2023-12-11T09:57:02.192Z,5.64
2023-12-11T09:58:00.027Z,5.88
2023-12-11T09:58:57.720Z,5.65
2023-12-11T09:59:54.671Z,5.66
2023-12-11T10:00:51.589Z,5.48
2023-12-11T10:01:49.755Z,5.89
2023-12-11T10:02:51.935Z,5.96
2023-12-11T10:03:48.736Z,6.24
2023-12-11T10:05:05.636Z,6.04
2023-12-11T10:06:04.401Z,5.70
2023-12-11T10:07:01.159Z,6.06
2023-12-11T10:07:57.880Z,5.94
2023-12-11T10:08:54.997Z,5.61
2023-12-11T10:09:51.776Z,5.79
2023-12-11T10:10:48.447Z,5.98
2023-12-11T10:11:58.503Z,6.25
2023-12-11T10:12:56.616Z,5.83
2023-12-11T10:13:53.512Z,6.34
2023-12-11T10:15:02.347Z,6.19
2023-12-11T10:15:59.510Z,5.57
2023-12-11T10:16:56.353Z,5.49
2023-12-11T10:18:14.059Z,6.38
2023-12-11T10:19:11.152Z,5.89
2023-12-11T10:20:16.566Z,6.24
2023-12-11T10:21:13.311Z,5.35
2023-12-11T10:22:27.470Z,5.16
2023-12-11T10:23:24.826Z,5.15
2023-12-11T10:24:21.620Z,5.57
2023-12-11T10:25:29.465Z,5.62
2023-12-11T10:26:26.187Z,5.61
2023-12-11T10:27:27.605Z,5.25
2023-12-11T10:28:25.263Z,5.35
2023-12-11T10:29:24.569Z,5.29
2023-12-11T10:30:21.754Z,5.26
2023-12-11T10:31:18.600Z,5.43
2023-12-11T10:32:15.291Z,5.48
2023-12-11T10:33:13.101Z,5.84
2023-12-11T10:34:10.080Z,6.06
2023-12-11T10:35:08.092Z,5.62
2023-12-11T10:36:13.477Z,5.37
2023-12-11T10:37:19.909Z,5.91
2023-12-11T10:38:41.227Z,5.61
2023-12-11T10:40:33.949Z,6.08
2023-12-11T10:41:30.741Z,5.75
2023-12-11T10:42:28.747Z,5.55
2023-12-11T10:43:25.619Z,5.90
2023-12-11T10:44:39.432Z,6.22
2023-12-11T10:45:41.295Z,6.40
2023-12-11T10:46:39.218Z,6.49
2023-12-11T10:47:36.418Z,6.29
2023-12-11T10:48:33.364Z,6.38
2023-12-11T10:49:30.732Z,6.18
2023-12-11T10:50:28.154Z,6.02
2023-12-11T10:51:25.789Z,6.33
2023-12-11T10:52:22.518Z,6.48
2023-12-11T10:53:20.359Z,6.45
2023-12-11T10:54:17.574Z,6.38
2023-12-11T10:55:14.652Z,6.45
2023-12-11T10:56:11.874Z,6.58
2023-12-11T10:57:22.624Z,6.36
2023-12-11T10:58:19.668Z,6.48
2023-12-11T10:59:16.975Z,6.49
2023-12-11T11:00:15.095Z,6.62
2023-12-11T11:01:13.652Z,6.46
2023-12-11T11:02:14.431Z,6.43
2023-12-11T11:03:12.845Z,6.81
2023-12-11T11:04:11.018Z,6.62
2023-12-11T11:05:07.780Z,6.57
2023-12-11T11:06:04.994Z,6.85
2023-12-11T11:07:08.474Z,6.35
2023-12-11T11:08:23.396Z,5.98
2023-12-11T11:09:51.432Z,6.36
2023-12-11T11:10:55.629Z,5.95
2023-12-11T11:12:03.756Z,6.31
2023-12-11T11:13:10.221Z,6.60
2023-12-11T11:14:39.494Z,6.29
2023-12-11T11:15:36.301Z,6.52
2023-12-11T11:16:55.645Z,6.48
2023-12-11T11:18:11.074Z,6.45
2023-12-11T11:19:08.275Z,6.59
2023-12-11T11:20:13.969Z,6.90
2023-12-11T11:21:13.327Z,7.12
2023-12-11T11:22:10.117Z,6.95
2023-12-11T11:23:19.838Z,6.96
2023-12-11T11:24:27.651Z,6.96
2023-12-11T11:25:31.199Z,6.55
2023-12-11T11:26:33.089Z,6.84
2023-12-11T11:27:42.277Z,6.97
2023-12-11T11:28:45.441Z,6.68
2023-12-11T11:29:44.663Z,6.86
2023-12-11T11:30:47.945Z,7.05
2023-12-11T11:31:50.458Z,7.25
2023-12-11T11:32:55.394Z,7.06
2023-12-11T11:33:53.840Z,6.86
2023-12-11T11:34:50.905Z,6.84
2023-12-11T11:35:48.105Z,6.56
2023-12-11T11:36:49.959Z,6.79
2023-12-11T11:37:51.434Z,6.95
2023-12-11T11:38:52.424Z,6.93
2023-12-11T11:40:02.209Z,7.00
2023-12-11T11:41:00.070Z,7.23
2023-12-11T11:41:57.875Z,7.29
2023-12-11T11:42:54.518Z,7.12
2023-12-11T11:43:59.028Z,7.21
2023-12-11T11:44:58.529Z,7.11
2023-12-11T11:45:56.865Z,7.16
2023-12-11T11:46:55.578Z,7.08
2023-12-11T11:47:52.817Z,7.18
2023-12-11T11:48:49.622Z,7.34
2023-12-11T11:49:46.512Z,7.16
2023-12-11T11:50:54.963Z,7.02
2023-12-11T11:51:51.643Z,6.99
2023-12-11T11:52:55.225Z,6.97
2023-12-11T11:54:00.963Z,6.98
2023-12-11T11:55:19.933Z,6.60
2023-12-11T11:56:16.757Z,7.00
2023-12-11T11:57:13.472Z,7.06
2023-12-11T11:58:14.650Z,7.09
2023-12-11T11:59:11.323Z,7.25
2023-12-11T12:00:08.527Z,7.23
2023-12-11T12:01:06.050Z,7.02
2023-12-11T12:02:02.930Z,6.75
2023-12-11T12:03:01.973Z,7.11
2023-12-11T12:03:58.796Z,7.26
2023-12-11T12:04:56.620Z,7.13
2023-12-11T12:05:57.927Z,7.13
2023-12-11T12:06:58.831Z,7.12
2023-12-11T12:07:55.798Z,7.24
2023-12-11T12:08:52.701Z,7.30
2023-12-11T12:10:00.435Z,7.49
2023-12-11T12:11:00.541Z,7.66
2023-12-11T12:11:59.095Z,7.56
2023-12-11T12:12:59.793Z,7.23
2023-12-11T12:13:56.823Z,7.27
2023-12-11T12:15:04.244Z,7.23
2023-12-11T12:16:00.942Z,7.30
2023-12-11T12:16:57.594Z,7.13
2023-12-11T12:17:54.528Z,6.94
2023-12-11T12:18:51.624Z,6.94
2023-12-11T12:19:48.484Z,6.92
2023-12-11T12:20:45.207Z,6.94
2023-12-11T12:21:56.132Z,6.98
2023-12-11T12:23:02.907Z,7.00
2023-12-11T12:24:07.496Z,6.63
2023-12-11T12:25:04.461Z,6.99
2023-12-11T12:26:04.258Z,7.04
2023-12-11T12:27:00.920Z,6.97
2023-12-11T12:28:05.543Z,6.62
2023-12-11T12:29:02.695Z,6.48
2023-12-11T12:29:59.369Z,6.62
2023-12-11T12:30:56.253Z,6.56
2023-12-11T12:31:53.194Z,6.42
2023-12-11T12:32:51.817Z,6.60
2023-12-11T12:33:50.804Z,6.81
2023-12-11T12:34:50.461Z,6.97
2023-12-11T12:35:48.343Z,6.89
2023-12-11T12:36:45.768Z,6.96
2023-12-11T12:37:42.960Z,7.01
2023-12-11T12:38:40.285Z,7.01
2023-12-11T12:39:37.554Z,6.93
2023-12-11T12:40:35.375Z,7.33
2023-12-11T12:41:32.533Z,7.22
2023-12-11T12:42:31.325Z,7.04
2023-12-11T12:43:28.089Z,7.24
2023-12-11T12:44:24.878Z,7.14
2023-12-11T12:45:36.829Z,7.35
2023-12-11T12:46:42.641Z,7.42
2023-12-11T12:47:49.070Z,7.52
2023-12-11T12:48:46.503Z,7.42
2023-12-11T12:49:47.079Z,6.82
2023-12-11T12:50:43.968Z,6.90
2023-12-11T12:51:53.922Z,7.05